Time;durP1;ratioP1;P1;durP2;ratioP2;P2;SDS_P1;SDS_P2;PMS_P1;PMS_P2;Temp;Humidity;BMP_temperature;BMP_pressure;BME280_temperature;BME280_humidity;BME280_pressure;Samples;Min_cycle;Max_cycle;Signal;HPM_P1;HPM_P2
2022/04/19 06:47:46;;;;;;;13.73;10.57;;;11.80;90.40;;;;;;5156019;27;21131;-76
2022/04/19 06:50:18;;;;;;;12.97;10.00;;;11.80;90.50;;;;;;5148284;27;20207;-76
2022/04/19 06:52:49;;;;;;;10.40;8.83;;;11.70;88.00;;;;;;5142324;27;20225;-76
2022/04/19 06:55:43;;;;;;;12.83;10.07;;;11.90;88.10;;;;;;5137468;27;20219;-75
2022/04/19 06:58:10;;;;;;;12.47;10.00;;;11.80;86.70;;;;;;5142099;27;20183;-75
2022/04/19 07:00:38;;;;;;;10.13;8.93;;;12.00;86.50;;;;;;5150027;27;20191;-76
2022/04/19 07:03:07;;;;;;;13.07;10.55;;;12.30;84.50;;;;;;5145868;27;20207;-75
2022/04/19 07:06:00;;;;;;;10.77;9.55;;;12.30;82.40;;;;;;5142460;27;20191;-77
2022/04/19 07:08:28;;;;;;;12.93;10.43;;;12.30;82.50;;;;;;5148974;27;20195;-77
2022/04/19 07:10:56;;;;;;;12.57;10.68;;;12.30;81.70;;;;;;5149124;27;20205;-77
2022/04/19 07:13:39;;;;;;;11.85;10.30;;;12.40;82.10;;;;;;5144982;27;20230;-76
2022/04/19 07:16:06;;;;;;;13.25;10.55;;;12.40;81.70;;;;;;5146411;27;20211;-76
2022/04/19 07:18:35;;;;;;;13.18;10.98;;;12.70;81.70;;;;;;5127163;28;20200;-75
2022/04/19 07:26:40;;;;;;;13.60;10.55;;;12.40;81.40;;;;;;5149658;27;20187;-76
2022/04/19 07:29:11;;;;;;;17.27;11.70;;;12.50;82.00;;;;;;5146505;27;20194;-77
2022/04/19 07:31:41;;;;;;;18.42;11.45;;;12.60;81.50;;;;;;5145290;27;20199;-76
2022/04/19 07:34:14;;;;;;;13.55;11.80;;;12.80;81.60;;;;;;5148805;27;20202;-76
2022/04/19 07:36:42;;;;;;;14.05;11.27;;;12.80;82.30;;;;;;5148304;27;20214;-76
2022/04/19 07:39:10;;;;;;;13.00;11.70;;;12.90;82.00;;;;;;5147984;27;20196;-76
2022/04/19 07:41:45;;;;;;;12.70;11.32;;;13.10;80.30;;;;;;5147535;27;20199;-76
2022/04/19 07:44:15;;;;;;;12.63;10.95;;;13.00;77.70;;;;;;5147357;27;20195;-76
2022/04/19 07:46:44;;;;;;;12.13;10.77;;;13.00;76.80;;;;;;5143195;27;20198;-76
2022/04/19 07:49:13;;;;;;;14.55;11.52;;;13.10;77.00;;;;;;5130134;27;20203;-76
2022/04/19 07:51:43;;;;;;;15.10;11.02;;;13.10;77.30;;;;;;5127762;27;20690;-76
2022/04/19 07:54:11;;;;;;;11.77;10.32;;;13.10;76.30;;;;;;5132866;27;20298;-75
2022/04/19 07:56:38;;;;;;;11.20;9.93;;;13.20;76.50;;;;;;5147959;27;20203;-76
2022/04/19 07:59:06;;;;;;;12.88;10.40;;;13.40;74.60;;;;;;5131403;27;20192;-75
2022/04/19 08:01:36;;;;;;;11.52;10.05;;;13.50;72.30;;;;;;5134190;27;20196;-76
2022/04/19 08:04:23;;;;;;;10.77;9.65;;;13.40;72.40;;;;;;5134245;27;20194;-75
2022/04/19 08:07:12;;;;;;;13.40;10.57;;;13.60;71.50;;;;;;5133719;27;20277;-75
2022/04/19 08:09:40;;;;;;;11.88;9.85;;;13.60;70.80;;;;;;5127124;27;20200;-75
2022/04/19 08:12:09;;;;;;;11.52;10.27;;;13.50;72.10;;;;;;5129699;27;20215;-75
2022/04/19 08:14:37;;;;;;;10.63;9.52;;;13.80;70.90;;;;;;5119888;27;20192;-76
2022/04/19 08:17:05;;;;;;;13.02;9.80;;;13.90;70.70;;;;;;5123548;27;20563;-79
2022/04/19 08:19:36;;;;;;;10.93;9.82;;;14.00;70.90;;;;;;5121810;27;20192;-80
2022/04/19 08:22:05;;;;;;;10.77;9.63;;;14.00;70.80;;;;;;5120602;27;20219;-77
2022/04/19 08:24:42;;;;;;;10.63;9.52;;;14.00;72.20;;;;;;5129215;27;20204;-77
2022/04/19 08:27:11;;;;;;;11.02;9.93;;;14.10;71.20;;;;;;5134141;27;20187;-77
2022/04/19 08:29:38;;;;;;;12.43;10.65;;;14.10;69.30;;;;;;5126854;27;20210;-77
2022/04/19 08:32:07;;;;;;;10.13;9.13;;;14.10;71.60;;;;;;5130953;27;20223;-77
2022/04/19 08:34:36;;;;;;;10.75;9.43;;;14.20;73.30;;;;;;5124076;27;20205;-78
2022/04/19 08:37:03;;;;;;;10.85;9.75;;;14.40;72.00;;;;;;5128189;27;20215;-77
2022/04/19 08:39:31;;;;;;;11.02;9.55;;;14.60;70.50;;;;;;5115603;27;20195;-78
2022/04/19 08:41:59;;;;;;;9.73;8.50;;;14.70;69.90;;;;;;5112740;28;20222;-78
2022/04/19 08:44:26;;;;;;;10.90;8.95;;;14.80;71.90;;;;;;5118154;27;20195;-77
2022/04/19 08:46:55;;;;;;;10.23;9.00;;;14.90;70.20;;;;;;5128683;27;20192;-77
2022/04/19 08:49:24;;;;;;;9.85;8.70;;;14.90;71.40;;;;;;5130217;27;20191;-77
2022/04/19 08:51:53;;;;;;;9.13;8.05;;;14.90;68.10;;;;;;5126296;27;20202;-78
2022/04/19 08:59:54;;;;;;;9.48;7.97;;;14.90;67.60;;;;;;5129821;27;20206;-77
2022/04/19 09:02:23;;;;;;;11.75;8.05;;;15.00;68.20;;;;;;5122898;27;20223;-77
2022/04/19 09:04:52;;;;;;;13.07;8.77;;;15.00;66.60;;;;;;5122984;27;20230;-77
2022/04/19 09:07:22;;;;;;;11.02;7.25;;;15.10;65.20;;;;;;5116403;27;20192;-78
2022/04/19 09:09:59;;;;;;;10.18;8.43;;;15.10;66.10;;;;;;5119207;27;20204;-77
2022/04/19 09:12:27;;;;;;;9.05;6.68;;;15.30;66.30;;;;;;5117362;27;20208;-77
2022/04/19 09:14:58;;;;;;;9.20;7.22;;;15.40;65.20;;;;;;5121216;27;20211;-77
2022/04/19 09:17:33;;;;;;;8.13;6.85;;;15.50;64.70;;;;;;5120788;27;20223;-76
2022/04/19 09:20:12;;;;;;;8.98;6.20;;;15.50;64.40;;;;;;5121321;27;20194;-77
2022/04/19 09:22:42;;;;;;;8.20;6.95;;;15.50;64.20;;;;;;5128367;27;20223;-77
2022/04/19 09:25:24;;;;;;;7.00;5.40;;;15.40;64.10;;;;;;5127311;27;20195;-76
2022/04/19 09:27:53;;;;;;;8.55;5.97;;;15.40;63.30;;;;;;5124262;27;20214;-76
2022/04/19 09:30:22;;;;;;;8.10;5.95;;;15.50;63.20;;;;;;5125512;27;20567;-77
2022/04/19 09:33:08;;;;;;;8.93;6.80;;;15.70;63.70;;;;;;5120522;27;20231;-77
2022/04/19 09:35:37;;;;;;;10.88;5.90;;;15.70;64.50;;;;;;5127382;27;20249;-76
2022/04/19 09:38:14;;;;;;;6.68;5.13;;;15.80;67.50;;;;;;5129905;27;20215;-77
2022/04/19 09:40:44;;;;;;;6.82;4.60;;;15.80;63.50;;;;;;5124348;27;20238;-76
2022/04/19 09:43:16;;;;;;;6.68;5.57;;;15.90;63.10;;;;;;5124439;27;20234;-77
2022/04/19 09:45:58;;;;;;;7.30;5.50;;;15.80;61.30;;;;;;5124956;27;20208;-77
2022/04/19 09:48:27;;;;;;;7.45;5.43;;;15.90;63.00;;;;;;5127664;27;20584;-76
2022/04/19 09:50:58;;;;;;;9.20;6.38;;;16.00;63.20;;;;;;5130689;27;20192;-77
2022/04/19 09:53:29;;;;;;;8.23;6.45;;;16.00;63.90;;;;;;5118036;27;20216;-76
2022/04/19 09:55:58;;;;;;;9.18;6.55;;;16.00;63.20;;;;;;5121788;27;20198;-77
2022/04/19 09:58:26;;;;;;;7.72;6.43;;;15.90;61.70;;;;;;5125450;27;20214;-77
2022/04/19 10:00:54;;;;;;;7.90;6.63;;;15.80;62.10;;;;;;5124231;27;20194;-77
2022/04/19 10:08:54;;;;;;;7.82;6.03;;;16.20;60.50;;;;;;5114064;27;20192;-77
2022/04/19 10:11:32;;;;;;;8.00;6.68;;;16.20;59.70;;;;;;5124626;27;20195;-77
2022/04/19 10:14:00;;;;;;;7.85;6.10;;;16.30;60.00;;;;;;5115156;27;20246;-78
2022/04/19 10:16:30;;;;;;;10.20;6.85;;;16.30;59.60;;;;;;5116517;27;20223;-78
2022/04/19 10:19:02;;;;;;;9.30;6.68;;;16.50;61.40;;;;;;5115754;27;20703;-77
2022/04/19 10:21:34;;;;;;;8.23;7.13;;;16.60;59.60;;;;;;5119317;27;20203;-76
2022/04/19 10:24:14;;;;;;;8.93;6.97;;;16.50;59.80;;;;;;5118423;27;20218;-77
2022/04/19 10:26:45;;;;;;;7.75;6.10;;;16.60;59.50;;;;;;5139692;27;20192;-77
2022/04/19 10:29:18;;;;;;;7.60;5.75;;;16.70;60.80;;;;;;5115782;27;20187;-79
2022/04/19 10:31:58;;;;;;;7.07;5.88;;;16.90;60.80;;;;;;5125279;27;20557;-78
2022/04/19 10:34:26;;;;;;;8.35;6.22;;;17.20;60.80;;;;;;5122930;27;20654;-78
2022/04/19 10:36:57;;;;;;;7.05;6.35;;;17.20;61.40;;;;;;5125957;27;20199;-78
2022/04/19 10:39:32;;;;;;;8.25;6.57;;;17.40;60.50;;;;;;5120690;27;20227;-77
2022/04/19 10:42:01;;;;;;;9.10;6.50;;;17.50;59.70;;;;;;5121351;27;20214;-76
2022/04/19 10:44:55;;;;;;;9.18;6.55;;;17.40;59.50;;;;;;5123637;28;20196;-76
2022/04/19 10:47:24;;;;;;;8.25;7.28;;;17.20;59.20;;;;;;5118696;28;20199;-76
2022/04/19 10:49:59;;;;;;;9.40;7.07;;;17.20;59.80;;;;;;5127320;28;20645;-76
2022/04/19 10:52:52;;;;;;;8.10;6.68;;;17.40;58.00;;;;;;5123012;27;20215;-76
2022/04/19 10:55:26;;;;;;;8.38;6.50;;;17.50;56.10;;;;;;5124482;28;20187;-76
2022/04/19 10:58:12;;;;;;;8.23;6.25;;;17.60;56.60;;;;;;5118999;28;20207;-76
2022/04/19 11:00:45;;;;;;;8.15;6.28;;;17.60;56.30;;;;;;5118677;28;20195;-76
2022/04/19 11:03:14;;;;;;;8.82;6.30;;;17.60;55.50;;;;;;5119749;28;20215;-76
2022/04/19 11:05:43;;;;;;;7.88;6.30;;;17.90;55.20;;;;;;5123867;28;20208;-76
2022/04/19 11:08:36;;;;;;;7.10;5.70;;;18.00;55.70;;;;;;5125895;28;20204;-77
2022/04/19 11:11:26;;;;;;;9.20;6.50;;;18.10;54.90;;;;;;5126729;28;20184;-77
2022/04/19 11:14:19;;;;;;;7.85;6.10;;;18.30;55.70;;;;;;5124295;28;20215;-76
2022/04/19 11:16:48;;;;;;;7.15;6.10;;;18.40;54.10;;;;;;5121852;28;20199;-76
2022/04/19 11:19:18;;;;;;;8.73;6.25;;;18.40;54.30;;;;;;5127900;28;20211;-77
2022/04/19 11:21:56;;;;;;;8.05;6.18;;;18.30;53.40;;;;;;5120534;28;20195;-76
2022/04/19 11:25:05;;;;;;;7.82;5.60;;;18.00;54.50;;;;;;5131124;27;20199;-76
2022/04/19 11:28:09;;;;;;;7.15;5.63;;;18.20;55.60;;;;;;5123485;28;20187;-77
2022/04/19 11:30:44;;;;;;;7.85;6.03;;;18.20;53.20;;;;;;5126923;28;20195;-76
2022/04/19 11:33:12;;;;;;;7.68;5.80;;;18.50;52.90;;;;;;5129036;27;20214;-76
2022/04/19 11:35:39;;;;;;;7.35;5.95;;;18.60;52.70;;;;;;5133921;27;20200;-76
2022/04/19 11:38:09;;;;;;;7.63;6.50;;;18.70;54.00;;;;;;5132612;27;20680;-77
2022/04/19 11:49:07;;;;;;;8.52;6.00;;;18.60;53.40;;;;;;5127414;27;20195;-80
2022/04/19 11:51:37;;;;;;;7.22;5.40;;;18.70;53.40;;;;;;5120206;27;20200;-81
2022/04/19 11:54:08;;;;;;;6.68;5.35;;;18.40;53.30;;;;;;5126102;27;20220;-81
2022/04/19 11:56:37;;;;;;;6.85;5.57;;;18.40;53.00;;;;;;5123347;27;20211;-82
2022/04/19 11:59:04;;;;;;;6.70;5.45;;;18.60;55.30;;;;;;5126420;27;20567;-79
2022/04/19 12:01:33;;;;;;;6.32;5.32;;;18.70;53.50;;;;;;5116871;27;20212;-80
2022/04/19 12:04:10;;;;;;;7.50;5.68;;;18.80;55.70;;;;;;5124970;27;20215;-79
2022/04/19 12:06:38;;;;;;;8.57;6.40;;;18.70;53.60;;;;;;5125329;27;20580;-79
2022/04/19 12:09:06;;;;;;;8.27;5.32;;;18.90;53.50;;;;;;5131692;27;20201;-79
2022/04/19 12:11:33;;;;;;;6.90;5.75;;;19.10;54.00;;;;;;5122087;27;20215;-79
2022/04/19 12:14:03;;;;;;;5.82;5.13;;;19.20;53.40;;;;;;5112796;27;20216;-79
2022/04/19 12:16:31;;;;;;;6.22;5.38;;;19.00;53.30;;;;;;5120746;27;20200;-79
2022/04/19 12:19:01;;;;;;;6.50;5.03;;;19.10;52.40;;;;;;5119562;27;20242;-79
2022/04/19 12:21:38;;;;;;;6.28;5.45;;;19.60;52.30;;;;;;5116748;27;20193;-79
2022/04/19 12:24:07;;;;;;;10.20;5.72;;;19.70;51.00;;;;;;5111302;28;20219;-79
2022/04/19 12:26:35;;;;;;;6.70;4.95;;;19.60;50.80;;;;;;5127648;27;20205;-79
2022/04/19 12:29:12;;;;;;;5.30;4.80;;;20.00;51.70;;;;;;5119698;27;20192;-80
2022/04/19 12:31:47;;;;;;;6.32;5.22;;;19.90;53.00;;;;;;5121720;27;20211;-79
2022/04/19 12:34:16;;;;;;;5.75;4.82;;;20.30;52.90;;;;;;5113261;28;20204;-79
2022/04/19 12:36:46;;;;;;;7.15;5.60;;;20.40;50.40;;;;;;5123805;27;20203;-79
2022/04/19 12:39:15;;;;;;;8.73;5.97;;;20.20;50.00;;;;;;5129646;27;20211;-79
2022/04/19 12:41:44;;;;;;;6.15;5.55;;;20.40;49.90;;;;;;5116153;27;20204;-79
2022/04/19 12:44:13;;;;;;;9.27;5.43;;;19.80;50.50;;;;;;5117920;27;20204;-79
2022/04/19 12:46:42;;;;;;;5.97;5.18;;;19.60;51.70;;;;;;5116986;27;20208;-79
2022/04/19 12:49:22;;;;;;;6.70;5.45;;;19.80;52.10;;;;;;5121328;27;20199;-79
2022/04/19 12:52:00;;;;;;;6.55;5.72;;;20.00;52.00;;;;;;5116719;27;20195;-79
2022/04/19 12:54:28;;;;;;;6.93;6.13;;;20.40;51.40;;;;;;5120029;27;20188;-79
2022/04/19 12:56:57;;;;;;;6.47;5.65;;;20.50;50.70;;;;;;5118527;27;20206;-78
2022/04/19 12:59:25;;;;;;;6.63;6.03;;;20.00;50.90;;;;;;5128375;27;20214;-78
2022/04/19 13:01:53;;;;;;;6.15;5.55;;;19.90;50.70;;;;;;5121169;27;20661;-76
2022/04/19 13:04:22;;;;;;;6.95;5.15;;;19.90;51.80;;;;;;5126808;27;20194;-76
2022/04/19 13:12:19;;;;;;;5.40;4.70;;;21.00;49.20;;;;;;5123390;27;20219;-76
2022/04/19 13:14:49;;;;;;;6.05;5.20;;;20.90;51.00;;;;;;5111504;27;20200;-77
2022/04/19 13:17:17;;;;;;;7.07;5.38;;;21.00;48.80;;;;;;5125597;27;20657;-76
2022/04/19 13:19:46;;;;;;;6.28;5.07;;;20.90;48.10;;;;;;5126196;27;20220;-76
2022/04/19 13:22:15;;;;;;;8.20;5.00;;;21.00;48.70;;;;;;5122040;27;20212;-76
2022/04/19 13:24:44;;;;;;;5.75;5.18;;;21.00;46.00;;;;;;5113816;27;20203;-77
2022/04/19 13:27:13;;;;;;;5.97;4.80;;;20.90;46.60;;;;;;5117747;27;20652;-76
2022/04/19 13:29:41;;;;;;;5.00;4.53;;;21.10;45.80;;;;;;5118746;27;20195;-76
2022/04/19 13:32:10;;;;;;;6.13;5.53;;;21.20;46.70;;;;;;5119125;27;20214;-75
2022/04/19 13:34:41;;;;;;;5.82;5.00;;;20.50;47.20;;;;;;5130899;27;20191;-76
2022/04/19 13:37:10;;;;;;;5.22;4.43;;;20.20;49.50;;;;;;5111973;27;20191;-76
2022/04/19 13:39:37;;;;;;;5.85;5.05;;;20.70;48.80;;;;;;5114245;27;20208;-75
2022/04/19 13:42:05;;;;;;;5.55;4.25;;;21.20;47.30;;;;;;5112923;27;20582;-76
2022/04/19 13:44:33;;;;;;;5.78;4.60;;;21.60;46.60;;;;;;5108202;27;20204;-76
2022/04/19 13:47:00;;;;;;;5.78;4.22;;;21.60;45.60;;;;;;5110954;27;20196;-75
2022/04/19 13:49:28;;;;;;;5.22;4.00;;;21.10;46.30;;;;;;5111564;27;20187;-75
2022/04/19 13:51:58;;;;;;;4.95;4.03;;;21.00;46.90;;;;;;5107461;27;20212;-76
2022/04/19 13:54:27;;;;;;;4.50;4.10;;;21.50;44.70;;;;;;5107540;27;20195;-77
2022/04/19 13:57:04;;;;;;;3.88;3.58;;;21.60;44.90;;;;;;5112599;27;20202;-76
2022/04/19 13:59:31;;;;;;;4.10;3.75;;;21.50;44.70;;;;;;5127463;27;20207;-76
2022/04/19 14:01:59;;;;;;;8.13;4.30;;;21.60;45.30;;;;;;5116369;27;20199;-76
2022/04/19 14:04:26;;;;;;;4.90;4.07;;;21.50;44.90;;;;;;5112451;27;20200;-75
2022/04/19 14:06:54;;;;;;;4.65;3.65;;;22.30;44.50;;;;;;5119930;27;20199;-77
2022/04/19 14:09:21;;;;;;;5.03;3.83;;;22.20;43.30;;;;;;5116584;27;20200;-77
2022/04/19 14:11:50;;;;;;;4.43;4.03;;;22.80;43.50;;;;;;5114919;27;20215;-78
2022/04/19 14:14:18;;;;;;;4.85;3.65;;;22.80;42.90;;;;;;5122901;27;20192;-77
2022/04/19 14:16:46;;;;;;;4.70;4.18;;;22.30;42.70;;;;;;5124853;27;20196;-78
2022/04/19 14:19:14;;;;;;;3.63;3.33;;;22.00;42.80;;;;;;5120020;27;20220;-76
2022/04/19 14:21:43;;;;;;;4.32;3.28;;;22.30;42.40;;;;;;5123899;27;20203;-77
2022/04/19 14:24:10;;;;;;;4.72;3.65;;;22.80;42.20;;;;;;5107529;28;20251;-77
2022/04/19 14:26:38;;;;;;;4.53;4.13;;;22.70;42.50;;;;;;5118696;27;20196;-77
2022/04/19 14:34:33;;;;;;;4.03;3.63;;;22.00;42.30;;;;;;5080395;27;20196;-77
2022/04/19 14:37:01;;;;;;;3.85;3.55;;;22.40;41.90;;;;;;5119163;27;20616;-77
2022/04/19 14:39:32;;;;;;;3.28;3.03;;;22.50;40.70;;;;;;5121665;27;20214;-77
2022/04/19 14:42:01;;;;;;;4.35;3.83;;;23.00;40.10;;;;;;5130006;27;20199;-77
2022/04/19 14:44:30;;;;;;;5.20;4.53;;;22.60;41.90;;;;;;5116256;27;20692;-76
2022/04/19 14:47:00;;;;;;;4.10;3.70;;;22.60;42.10;;;;;;5125072;28;20295;-75
2022/04/19 14:49:27;;;;;;;4.20;3.80;;;22.50;41.60;;;;;;5125913;28;20202;-76
2022/04/19 14:54:40;;;;;;;4.15;3.85;;;22.50;41.40;;;;;;5126836;28;20195;-77
2022/04/19 14:57:07;;;;;;;4.25;3.47;;;22.40;41.50;;;;;;5109366;28;20208;-77
2022/04/19 14:59:39;;;;;;;4.00;3.50;;;23.40;41.90;;;;;;5119915;28;20738;-77
2022/04/19 15:02:07;;;;;;;3.70;3.15;;;23.30;41.70;;;;;;5122118;27;20223;-76
2022/04/19 15:04:35;;;;;;;3.58;3.28;;;22.70;40.00;;;;;;5118377;28;20196;-76
2022/04/19 15:07:02;;;;;;;5.53;3.38;;;22.30;41.30;;;;;;5110738;28;20196;-77
2022/04/19 15:09:29;;;;;;;4.72;2.70;;;23.10;40.90;;;;;;5124970;27;20184;-77
2022/04/19 15:11:58;;;;;;;3.95;3.30;;;23.40;40.20;;;;;;5114611;27;20566;-77
2022/04/19 15:14:25;;;;;;;3.65;3.33;;;23.60;40.20;;;;;;5113571;27;20192;-77
2022/04/19 15:16:54;;;;;;;4.05;3.65;;;23.20;39.20;;;;;;5123499;27;20200;-76
2022/04/19 15:19:22;;;;;;;3.88;3.03;;;22.90;39.20;;;;;;5121324;27;20196;-76
2022/04/19 15:21:49;;;;;;;4.13;3.15;;;22.30;41.70;;;;;;5123796;27;20220;-76
2022/04/19 15:24:22;;;;;;;3.28;2.70;;;20.80;41.80;;;;;;5125753;27;20192;-76
2022/04/19 15:26:51;;;;;;;3.38;2.67;;;21.20;40.90;;;;;;5126011;27;20567;-75
2022/04/19 15:29:18;;;;;;;4.72;3.25;;;21.60;39.50;;;;;;5125561;27;20195;-76
2022/04/19 15:31:48;;;;;;;4.53;3.28;;;21.20;39.70;;;;;;5118107;27;20203;-77
2022/04/19 15:34:17;;;;;;;3.50;2.95;;;21.70;40.50;;;;;;5126388;27;20187;-76
2022/04/19 15:36:44;;;;;;;4.57;3.00;;;22.20;40.70;;;;;;5129179;27;20200;-76
2022/04/19 15:39:12;;;;;;;5.40;2.97;;;22.20;39.20;;;;;;5127942;27;20747;-76
2022/04/19 15:41:42;;;;;;;3.85;2.13;;;22.50;37.70;;;;;;5088680;27;20230;-76
2022/04/19 15:44:14;;;;;;;2.00;1.80;;;21.90;37.40;;;;;;5113956;27;20208;-76
2022/04/19 15:46:42;;;;;;;2.80;1.88;;;21.40;35.70;;;;;;5113422;27;20223;-76
2022/04/19 15:49:09;;;;;;;1.88;1.65;;;21.40;36.50;;;;;;5110398;27;20195;-77
2022/04/19 15:51:41;;;;;;;2.72;2.10;;;21.60;34.80;;;;;;5116581;27;20546;-76
2022/04/19 15:54:08;;;;;;;3.70;2.25;;;21.00;36.60;;;;;;5123422;27;20196;-76
2022/04/19 15:56:37;;;;;;;2.13;1.80;;;21.20;37.30;;;;;;5116299;27;20200;-77
2022/04/19 15:59:05;;;;;;;3.55;1.80;;;21.10;37.00;;;;;;5113186;27;20199;-76
2022/04/19 16:01:32;;;;;;;2.90;2.25;;;20.30;36.50;;;;;;5118678;27;20204;-76
2022/04/19 16:04:00;;;;;;;3.65;2.00;;;20.00;36.00;;;;;;5118281;27;20216;-76
2022/04/19 16:06:27;;;;;;;1.42;1.33;;;19.60;36.20;;;;;;5113284;27;20668;-76
2022/04/19 16:08:57;;;;;;;1.63;1.25;;;19.90;36.90;;;;;;5119653;27;20208;-79
2022/04/19 16:11:24;;;;;;;1.13;1.00;;;19.80;37.50;;;;;;5123210;27;20193;-77
2022/04/19 16:13:52;;;;;;;2.00;1.23;;;20.20;36.80;;;;;;5116236;27;20226;-77
2022/04/19 16:24:38;;;;;;;1.63;1.52;;;19.60;35.50;;;;;;5118871;27;20575;-76
2022/04/19 16:27:06;;;;;;;2.03;1.83;;;19.40;35.90;;;;;;5127683;27;20214;-77
2022/04/19 16:29:42;;;;;;;2.70;1.92;;;19.10;35.90;;;;;;5114127;27;20211;-76
2022/04/19 16:32:09;;;;;;;2.92;1.70;;;19.00;36.80;;;;;;5118963;27;20549;-76
2022/04/19 16:34:46;;;;;;;2.92;1.45;;;18.90;36.50;;;;;;5114965;27;20782;-76
2022/04/19 16:37:29;;;;;;;1.38;1.25;;;18.50;35.70;;;;;;5117871;27;20200;-76
2022/04/19 16:39:58;;;;;;;1.83;1.27;;;18.60;36.40;;;;;;5128882;27;20196;-76
2022/04/19 16:42:27;;;;;;;2.30;1.30;;;18.30;36.50;;;;;;5111080;27;20212;-76
2022/04/19 16:44:54;;;;;;;1.52;1.42;;;18.40;37.60;;;;;;5130454;27;20203;-76
2022/04/19 16:47:22;;;;;;;2.70;1.52;;;18.40;37.10;;;;;;5114154;27;20203;-76
2022/04/19 16:49:49;;;;;;;1.50;1.20;;;18.10;36.40;;;;;;5122288;27;20204;-76
2022/04/19 16:52:20;;;;;;;1.50;1.40;;;18.10;37.00;;;;;;5124539;27;20211;-77
2022/04/19 16:54:47;;;;;;;1.38;1.27;;;18.00;37.70;;;;;;5115536;27;20206;-77
2022/04/19 16:57:16;;;;;;;1.40;1.20;;;18.10;37.90;;;;;;5113880;27;20208;-78
2022/04/19 16:59:44;;;;;;;1.75;1.45;;;18.20;38.00;;;;;;5126518;27;20200;-77
2022/04/19 17:02:12;;;;;;;2.25;1.48;;;18.00;37.10;;;;;;5125479;27;20223;-77
2022/04/19 17:04:40;;;;;;;1.92;1.40;;;18.00;37.20;;;;;;5132205;27;20199;-78
2022/04/19 17:07:08;;;;;;;2.35;1.33;;;18.30;37.20;;;;;;5132376;27;20754;-78
2022/04/19 17:09:36;;;;;;;1.52;1.42;;;18.50;37.70;;;;;;5125881;27;20199;-77
2022/04/19 17:12:03;;;;;;;2.00;1.50;;;18.50;37.50;;;;;;5131513;27;20199;-78
2022/04/19 17:14:32;;;;;;;3.95;2.20;;;18.90;37.70;;;;;;5124409;27;20206;-77
2022/04/19 17:17:00;;;;;;;2.33;2.00;;;18.80;37.00;;;;;;5117529;27;20187;-77
2022/04/19 17:19:28;;;;;;;2.55;1.70;;;18.60;37.90;;;;;;5116370;27;20203;-76
2022/04/19 17:21:55;;;;;;;2.83;1.90;;;18.40;38.50;;;;;;5119353;27;20200;-76
2022/04/19 17:24:23;;;;;;;4.60;2.40;;;18.20;38.60;;;;;;5126395;27;20704;-76
2022/04/19 17:26:52;;;;;;;2.28;2.08;;;18.00;38.50;;;;;;5127806;27;20211;-76
2022/04/19 17:29:20;;;;;;;2.05;1.75;;;18.00;39.20;;;;;;5128573;27;20196;-76
2022/04/19 17:31:48;;;;;;;3.25;2.10;;;18.40;39.50;;;;;;5126733;27;20211;-77
2022/04/19 17:34:16;;;;;;;2.40;2.00;;;18.40;38.80;;;;;;5123183;27;20214;-76
2022/04/19 17:36:43;;;;;;;1.85;1.67;;;18.10;38.50;;;;;;5129558;27;20642;-76
2022/04/19 17:39:11;;;;;;;2.22;1.70;;;18.20;38.50;;;;;;5124975;27;20196;-76
2022/04/19 17:41:38;;;;;;;2.50;1.67;;;18.10;38.40;;;;;;5123216;27;20224;-77
2022/04/19 17:44:06;;;;;;;2.05;1.70;;;18.00;38.10;;;;;;5118547;27;20231;-76
2022/04/19 17:46:34;;;;;;;2.40;1.52;;;17.60;39.50;;;;;;5129352;27;20203;-76
2022/04/19 17:49:03;;;;;;;3.03;2.13;;;17.90;39.60;;;;;;5123669;27;20198;-76
2022/04/19 17:57:01;;;;;;;2.67;2.03;;;18.10;39.50;;;;;;5116682;27;20218;-77
2022/04/19 17:59:29;;;;;;;2.33;1.90;;;18.10;39.80;;;;;;5112994;27;20215;-76
2022/04/19 18:01:56;;;;;;;2.10;1.88;;;17.90;39.60;;;;;;5136949;27;20212;-77
2022/04/19 18:04:25;;;;;;;4.82;2.20;;;18.00;40.30;;;;;;5121698;27;20199;-77
2022/04/19 18:06:52;;;;;;;5.05;2.55;;;17.80;40.60;;;;;;5128566;27;20203;-77
2022/04/19 18:09:20;;;;;;;3.47;2.10;;;17.70;41.00;;;;;;5122457;27;20207;-76
2022/04/19 18:11:47;;;;;;;3.47;2.30;;;17.20;40.10;;;;;;5110408;27;20201;-77
2022/04/19 18:14:15;;;;;;;2.35;1.90;;;17.20;40.90;;;;;;5118731;27;20199;-77
2022/04/19 18:16:42;;;;;;;2.60;1.80;;;17.40;40.80;;;;;;5120593;27;20218;-77
2022/04/19 18:19:10;;;;;;;5.03;2.22;;;17.40;40.90;;;;;;5119655;27;20192;-77
2022/04/19 18:27:09;;;;;;;4.63;2.83;;;17.00;41.70;;;;;;5118974;27;20549;-75
2022/04/19 18:29:36;;;;;;;2.47;2.20;;;17.00;41.50;;;;;;5112330;27;20791;-75
2022/04/19 18:32:04;;;;;;;5.35;2.65;;;17.00;41.50;;;;;;5116666;27;20191;-75
2022/04/19 18:34:33;;;;;;;2.05;1.85;;;16.80;41.50;;;;;;5112719;27;20189;-76
2022/04/19 18:37:01;;;;;;;2.42;2.22;;;16.80;42.00;;;;;;5119230;27;20211;-76
2022/04/19 18:39:29;;;;;;;3.65;2.22;;;16.90;42.20;;;;;;5124034;27;20189;-78
2022/04/19 18:41:56;;;;;;;2.80;2.25;;;16.80;42.30;;;;;;5114040;28;20691;-78
2022/04/19 18:44:23;;;;;;;2.50;2.30;;;16.70;42.60;;;;;;5108774;27;20200;-78
2022/04/19 18:46:51;;;;;;;3.97;2.10;;;16.70;43.00;;;;;;5115656;27;20562;-78
2022/04/19 18:49:19;;;;;;;3.38;2.35;;;16.60;43.40;;;;;;5129973;27;20222;-78
2022/04/19 18:51:47;;;;;;;2.88;2.55;;;16.40;43.80;;;;;;5119834;28;20200;-78
2022/04/19 18:54:17;;;;;;;3.17;2.70;;;16.10;44.50;;;;;;5114536;28;20684;-78
2022/04/19 18:56:44;;;;;;;2.88;2.67;;;16.10;44.90;;;;;;5125321;28;20191;-78
2022/04/19 18:59:11;;;;;;;4.88;3.15;;;16.10;45.30;;;;;;5123798;28;20236;-78
2022/04/19 19:01:39;;;;;;;5.78;3.20;;;15.90;45.30;;;;;;5119520;27;20220;-78
2022/04/19 19:04:06;;;;;;;3.45;2.85;;;15.90;45.60;;;;;;5123688;27;20719;-78
2022/04/19 19:06:37;;;;;;;6.32;3.10;;;16.00;46.10;;;;;;5122259;28;20199;-78
2022/04/19 19:09:04;;;;;;;3.53;3.22;;;15.90;46.50;;;;;;5121699;28;20195;-78
2022/04/19 19:11:34;;;;;;;4.95;3.20;;;15.80;46.50;;;;;;5120752;28;20196;-78
2022/04/19 19:14:01;;;;;;;3.33;2.97;;;15.90;46.70;;;;;;5130360;28;20211;-78
2022/04/19 19:16:31;;;;;;;4.13;3.28;;;15.90;46.60;;;;;;5126662;27;20210;-78
2022/04/19 19:18:59;;;;;;;3.90;3.40;;;15.70;46.70;;;;;;5122748;28;20535;-78
2022/04/19 19:21:28;;;;;;;4.07;3.60;;;15.70;46.60;;;;;;5122830;27;20240;-78
2022/04/19 19:23:56;;;;;;;6.82;4.32;;;15.80;47.20;;;;;;5119337;28;20239;-78
2022/04/19 19:26:30;;;;;;;5.68;3.75;;;15.40;47.40;;;;;;5123992;27;20230;-78
2022/04/19 19:29:00;;;;;;;4.65;3.53;;;15.60;47.50;;;;;;5122214;28;20213;-78
2022/04/19 19:31:27;;;;;;;5.00;3.88;;;15.40;47.50;;;;;;5124707;28;20689;-79
2022/04/19 19:33:55;;;;;;;5.45;4.00;;;15.40;47.40;;;;;;5117461;28;20216;-79
2022/04/19 19:36:23;;;;;;;4.22;3.83;;;15.40;47.40;;;;;;5122693;28;20223;-79
2022/04/19 19:38:51;;;;;;;4.32;3.92;;;15.20;48.00;;;;;;5117598;28;20199;-79
2022/04/19 19:41:18;;;;;;;4.47;3.42;;;15.10;48.80;;;;;;5120572;28;20188;-79
2022/04/19 19:43:45;;;;;;;3.88;3.40;;;15.10;49.00;;;;;;5113799;28;20232;-79
2022/04/19 19:46:14;;;;;;;4.60;3.90;;;15.10;48.90;;;;;;5121555;28;20205;-79
2022/04/19 19:48:42;;;;;;;4.35;3.28;;;15.30;48.90;;;;;;5108839;28;20196;-79
2022/04/19 19:51:09;;;;;;;6.40;4.55;;;15.20;48.60;;;;;;5124726;28;20790;-79
2022/04/19 19:53:37;;;;;;;4.47;4.07;;;15.20;48.40;;;;;;5117207;27;20234;-79
2022/04/19 19:56:04;;;;;;;5.63;3.70;;;15.10;48.40;;;;;;5121200;27;20208;-78
2022/04/19 19:58:32;;;;;;;5.53;3.97;;;15.00;48.30;;;;;;5121200;27;20211;-79
2022/04/19 20:00:59;;;;;;;4.97;4.10;;;15.00;48.20;;;;;;5132681;27;20191;-78
2022/04/19 20:03:28;;;;;;;4.78;3.70;;;15.10;48.30;;;;;;5127434;27;20216;-79
2022/04/19 20:05:55;;;;;;;3.70;3.17;;;15.10;47.80;;;;;;5128969;27;20564;-78
2022/04/19 20:08:23;;;;;;;5.22;3.22;;;15.10;47.70;;;;;;5114976;27;20570;-78
2022/04/19 20:10:50;;;;;;;3.50;3.08;;;15.10;47.30;;;;;;5125141;27;20191;-80
2022/04/19 20:13:21;;;;;;;3.17;2.70;;;15.10;47.10;;;;;;5129096;27;20329;-80
2022/04/19 20:15:49;;;;;;;3.50;3.20;;;15.10;47.10;;;;;;5124880;27;20203;-80
2022/04/19 20:18:18;;;;;;;3.22;2.80;;;14.90;47.00;;;;;;5114522;27;20223;-80
2022/04/19 20:20:47;;;;;;;3.42;2.95;;;14.90;46.90;;;;;;5132921;27;20196;-80
2022/04/19 20:23:15;;;;;;;3.10;2.65;;;15.10;46.60;;;;;;5130182;27;20220;-81
2022/04/19 20:25:42;;;;;;;3.85;2.85;;;15.10;46.20;;;;;;5128867;27;20200;-81
2022/04/19 20:28:15;;;;;;;4.63;3.00;;;15.00;46.80;;;;;;5129982;27;20713;-80
2022/04/19 20:30:43;;;;;;;3.25;2.95;;;14.90;46.10;;;;;;5132719;27;20200;-82
2022/04/19 20:33:10;;;;;;;3.17;2.88;;;14.80;46.20;;;;;;5131872;27;20203;-82
2022/04/19 20:35:38;;;;;;;3.95;2.53;;;14.80;46.10;;;;;;5127145;27;20204;-81
2022/04/19 20:38:09;;;;;;;3.83;2.65;;;14.70;46.10;;;;;;5124439;27;20691;-81
2022/04/19 20:40:36;;;;;;;2.80;2.60;;;14.70;46.50;;;;;;5126912;27;20215;-80
2022/04/19 20:43:07;;;;;;;2.63;2.40;;;14.70;46.60;;;;;;5134578;27;20222;-81